createdAt,value
2023-04-01T00:01:35.997Z,3.27
2023-04-01T00:04:05.801Z,3.00
2023-04-01T00:06:34.917Z,2.90
2023-04-01T00:09:03.933Z,2.77
2023-04-01T00:11:36.322Z,3.13
2023-04-01T00:14:05.352Z,2.70
2023-04-01T00:16:36.109Z,3.03
2023-04-01T00:19:05.448Z,2.93
2023-04-01T00:21:37.760Z,3.17
2023-04-01T00:24:07.814Z,2.77
2023-04-01T00:26:36.940Z,2.90
2023-04-01T00:29:06.833Z,3.17
2023-04-01T00:31:37.390Z,2.80
2023-04-01T00:34:06.420Z,3.20
2023-04-01T00:36:36.249Z,2.33
2023-04-01T00:39:05.500Z,3.10
2023-04-01T00:41:34.570Z,3.50
2023-04-01T00:44:22.039Z,3.07
2023-04-01T00:46:53.518Z,3.23
2023-04-01T00:49:27.023Z,3.40
2023-04-01T00:51:59.357Z,2.90
2023-04-01T00:54:31.608Z,3.20
2023-04-01T00:57:04.150Z,3.20
2023-04-01T00:59:36.122Z,2.83
2023-04-01T01:02:10.657Z,2.90
2023-04-01T01:04:40.775Z,3.70
2023-04-01T01:07:21.451Z,3.53
2023-04-01T01:10:02.059Z,3.43
2023-04-01T01:12:40.422Z,3.73
2023-04-01T01:15:18.679Z,3.30
2023-04-01T01:17:58.251Z,3.77
2023-04-01T01:20:44.784Z,3.97
2023-04-01T01:23:44.354Z,3.40
2023-04-01T01:26:50.276Z,4.07
2023-04-01T01:29:44.092Z,3.80
2023-04-01T01:32:28.092Z,3.30
2023-04-01T01:35:09.978Z,3.53
2023-04-01T01:37:42.034Z,3.67
2023-04-01T01:40:14.212Z,3.47
2023-04-01T01:42:50.156Z,3.87
2023-04-01T01:45:23.596Z,3.70
2023-04-01T01:47:53.831Z,3.97
2023-04-01T01:50:25.961Z,3.73
2023-04-01T01:53:04.155Z,3.47
2023-04-01T01:55:35.254Z,3.77
2023-04-01T01:58:10.757Z,3.90
2023-04-01T02:00:45.199Z,3.60
2023-04-01T02:03:16.493Z,4.23
2023-04-01T02:05:47.933Z,3.27
2023-04-01T02:08:22.306Z,3.80
2023-04-01T02:10:58.078Z,3.53
2023-04-01T02:13:35.771Z,4.40
2023-04-01T02:16:09.808Z,4.00
2023-04-01T02:18:40.449Z,4.10
2023-04-01T02:21:12.488Z,3.30
2023-04-01T02:23:42.357Z,4.17
2023-04-01T02:26:14.070Z,3.90
2023-04-01T02:28:45.765Z,3.17
2023-04-01T02:31:16.856Z,3.23
2023-04-01T02:33:46.872Z,3.73
2023-04-01T02:36:18.505Z,3.57
2023-04-01T02:38:48.752Z,3.10
2023-04-01T02:41:17.889Z,4.20
2023-04-01T02:43:46.986Z,3.57
2023-04-01T02:46:16.066Z,3.17
2023-04-01T02:48:45.203Z,3.80
2023-04-01T02:51:15.518Z,3.23
2023-04-01T02:53:47.119Z,4.00
2023-04-01T02:56:16.409Z,3.60
2023-04-01T02:58:45.414Z,3.97
2023-04-01T03:01:14.759Z,3.63
2023-04-01T03:03:43.922Z,3.77
2023-04-01T03:06:14.868Z,3.70
2023-04-01T03:08:46.276Z,4.10
2023-04-01T03:11:15.759Z,4.20
2023-04-01T03:13:44.891Z,4.83
2023-04-01T03:16:14.210Z,4.00
2023-04-01T03:18:43.387Z,4.20
2023-04-01T03:21:17.520Z,3.73
2023-04-01T03:23:47.968Z,4.20
2023-04-01T03:26:17.427Z,4.10
2023-04-01T03:28:47.088Z,4.20
2023-04-01T03:31:17.044Z,3.87
2023-04-01T03:33:52.419Z,3.93
2023-04-01T03:36:21.815Z,4.53
2023-04-01T03:38:52.259Z,4.00
2023-04-01T03:41:27.897Z,4.03
2023-04-01T03:43:57.025Z,4.23
2023-04-01T03:46:26.148Z,3.80
2023-04-01T03:48:55.219Z,4.03
2023-04-01T03:51:24.311Z,4.50
2023-04-01T03:53:55.008Z,4.60
2023-04-01T03:56:24.310Z,4.40
2023-04-01T03:58:53.520Z,4.13
2023-04-01T04:01:23.790Z,4.43
2023-04-01T04:03:56.376Z,4.60
2023-04-01T04:06:27.233Z,4.70
2023-04-01T04:08:57.708Z,4.63
2023-04-01T04:11:26.862Z,3.77
2023-04-01T04:13:57.271Z,4.80
2023-04-01T04:16:27.514Z,4.10
2023-04-01T04:19:01.554Z,3.97
2023-04-01T04:21:30.735Z,2.67
2023-04-01T04:24:03.330Z,1.53
2023-04-01T04:26:50.362Z,1.30
2023-04-01T04:29:19.461Z,1.17
2023-04-01T04:31:48.908Z,0.90
2023-04-01T04:34:19.312Z,0.77
2023-04-01T04:36:48.759Z,0.90
2023-04-01T04:39:19.420Z,0.80
2023-04-01T04:41:49.107Z,0.60
2023-04-01T04:44:18.223Z,0.90
2023-04-01T04:46:47.400Z,0.83
2023-04-01T04:49:18.224Z,0.67
2023-04-01T04:51:47.505Z,0.50
2023-04-01T04:54:19.620Z,0.80
2023-04-01T04:56:55.358Z,0.80
2023-04-01T04:59:26.188Z,0.73
2023-04-01T05:02:03.042Z,0.77
2023-04-01T05:04:35.916Z,0.90
2023-04-01T05:07:05.053Z,0.90
2023-04-01T05:09:36.203Z,0.67
2023-04-01T05:12:06.056Z,0.47
2023-04-01T05:15:11.451Z,0.73
2023-04-01T05:17:41.478Z,0.77
2023-04-01T05:20:15.751Z,0.53
2023-04-01T05:22:45.270Z,0.70
2023-04-01T05:25:16.003Z,0.63
2023-04-01T05:27:45.077Z,0.63
2023-04-01T05:30:14.727Z,1.10
2023-04-01T05:32:55.908Z,0.90
2023-04-01T05:35:25.290Z,0.70
2023-04-01T05:37:54.444Z,1.00
2023-04-01T05:40:25.533Z,0.73
2023-04-01T05:42:55.038Z,0.60
2023-04-01T05:45:24.174Z,0.63
2023-04-01T05:48:11.583Z,0.53
2023-04-01T05:50:43.479Z,0.90
2023-04-01T05:53:14.006Z,0.80
2023-04-01T05:55:46.919Z,0.70
2023-04-01T05:58:16.870Z,0.57
2023-04-01T06:00:53.726Z,0.70
2023-04-01T06:03:31.726Z,0.77
2023-04-01T06:06:02.022Z,0.80
2023-04-01T06:08:33.567Z,0.40
2023-04-01T06:11:19.654Z,0.60
2023-04-01T06:14:06.942Z,0.83
2023-04-01T06:16:51.220Z,0.87
2023-04-01T06:19:34.365Z,0.70
2023-04-01T06:22:33.612Z,0.60
2023-04-01T06:25:26.975Z,0.70
2023-04-01T06:28:18.806Z,0.97
2023-04-01T06:30:53.484Z,0.60
2023-04-01T06:33:48.463Z,0.70
2023-04-01T06:36:41.150Z,0.50
2023-04-01T06:39:29.062Z,0.53
2023-04-01T06:42:16.094Z,0.60
2023-04-01T06:44:57.271Z,0.60
2023-04-01T06:47:58.140Z,0.50
2023-04-01T06:50:53.466Z,0.63
2023-04-01T06:53:50.183Z,0.70
2023-04-01T06:56:52.743Z,0.67
2023-04-01T06:59:30.513Z,0.70
2023-04-01T07:02:05.656Z,0.50
2023-04-01T07:04:38.117Z,0.40
2023-04-01T07:07:15.975Z,0.60
2023-04-01T07:10:00.114Z,0.50
2023-04-01T07:12:42.822Z,0.40
2023-04-01T07:15:38.534Z,0.50
2023-04-01T07:18:17.175Z,0.37
2023-04-01T07:20:48.779Z,0.70
2023-04-01T07:23:24.578Z,0.70
2023-04-01T07:26:08.695Z,0.70
2023-04-01T07:28:40.246Z,0.70
2023-04-01T07:31:51.959Z,0.37
2023-04-01T07:34:27.470Z,0.60
2023-04-01T07:37:08.318Z,0.50
2023-04-01T07:39:43.765Z,0.50
2023-04-01T07:42:44.093Z,0.60
2023-04-01T07:45:21.813Z,0.60
2023-04-01T07:48:08.157Z,0.50
2023-04-01T07:50:43.329Z,0.63
2023-04-01T07:53:22.523Z,0.70
2023-04-01T07:56:03.999Z,0.60
2023-04-01T07:58:42.721Z,0.30
2023-04-01T08:01:26.341Z,0.50
2023-04-01T08:04:13.688Z,0.67
2023-04-01T08:06:52.129Z,0.63
2023-04-01T08:09:30.248Z,0.60
2023-04-01T08:12:30.934Z,1.17
2023-04-01T08:15:24.715Z,0.70
2023-04-01T08:18:21.106Z,0.50
2023-04-01T08:20:54.546Z,0.67
2023-04-01T08:23:29.663Z,0.70
2023-04-01T08:26:04.628Z,0.43
2023-04-01T08:28:43.442Z,0.40
2023-04-01T08:31:18.229Z,0.40
2023-04-01T08:33:49.526Z,0.40
2023-04-01T08:36:23.126Z,0.30
2023-04-01T08:39:11.444Z,0.63
2023-04-01T08:42:19.556Z,0.60
2023-04-01T08:45:09.542Z,0.70
2023-04-01T08:47:54.919Z,0.60
2023-04-01T08:50:47.156Z,0.33
2023-04-01T08:54:01.036Z,0.50
2023-04-01T08:56:41.930Z,0.47
2023-04-01T08:59:34.197Z,0.60
2023-04-01T09:02:37.322Z,0.60
2023-04-01T09:05:38.823Z,0.70
2023-04-01T09:08:25.660Z,0.40
2023-04-01T09:11:24.187Z,0.53
2023-04-01T09:14:21.323Z,0.70
2023-04-01T09:17:20.847Z,0.30
2023-04-01T09:20:11.754Z,0.30
2023-04-01T09:22:59.210Z,0.80
2023-04-01T09:25:47.941Z,0.30
2023-04-01T09:28:24.038Z,0.40
2023-04-01T09:31:13.456Z,0.60
2023-04-01T09:34:27.407Z,0.47
2023-04-01T09:37:19.995Z,0.37
2023-04-01T09:40:11.318Z,0.70
2023-04-01T09:43:23.713Z,0.40
2023-04-01T09:46:11.699Z,0.40
2023-04-01T09:49:17.546Z,0.50
2023-04-01T09:51:58.206Z,0.53
2023-04-01T09:54:44.128Z,0.50
2023-04-01T09:57:51.110Z,0.40
2023-04-01T10:01:05.390Z,0.60
2023-04-01T10:04:16.548Z,0.50
2023-04-01T10:07:27.423Z,0.50
2023-04-01T10:10:39.944Z,0.40
2023-04-01T10:13:35.073Z,0.50
2023-04-01T10:16:35.595Z,0.43
2023-04-01T10:19:51.691Z,0.40
2023-04-01T10:22:57.109Z,0.33
2023-04-01T10:25:58.287Z,0.30
2023-04-01T10:28:45.756Z,0.43
2023-04-01T10:31:47.360Z,0.50
2023-04-01T10:34:53.030Z,0.50
2023-04-01T10:37:52.921Z,0.67
2023-04-01T10:40:51.818Z,0.40
2023-04-01T10:44:11.779Z,0.60
2023-04-01T10:47:11.233Z,0.60
2023-04-01T10:50:09.449Z,0.80
2023-04-01T10:53:29.641Z,0.70
2023-04-01T10:56:49.961Z,0.63
2023-04-01T11:00:20.379Z,0.70
2023-04-01T11:03:41.876Z,0.70
2023-04-01T11:07:07.643Z,0.80
2023-04-01T11:10:19.179Z,1.00
2023-04-01T11:13:23.971Z,0.93
2023-04-01T11:16:32.998Z,1.00
2023-04-01T11:19:24.406Z,0.97
2023-04-01T11:22:19.900Z,1.43
2023-04-01T11:25:31.863Z,0.67
2023-04-01T11:28:37.374Z,1.00
2023-04-01T11:31:28.023Z,1.50
2023-04-01T11:34:07.439Z,1.57
2023-04-01T11:36:47.197Z,1.50
2023-04-01T11:39:33.325Z,1.50
2023-04-01T11:42:18.772Z,1.80
2023-04-01T11:45:35.299Z,1.60
2023-04-01T11:48:30.006Z,1.80
2023-04-01T11:51:23.798Z,1.60
2023-04-01T11:54:01.858Z,1.70
2023-04-01T11:56:53.225Z,2.10
2023-04-01T11:59:47.839Z,1.90
2023-04-01T12:02:27.701Z,1.87
2023-04-01T12:05:17.901Z,1.77
2023-04-01T12:08:15.627Z,1.83
2023-04-01T12:10:54.283Z,1.77
2023-04-01T12:13:37.829Z,2.23
2023-04-01T12:16:25.982Z,2.23
2023-04-01T12:18:59.844Z,2.03
2023-04-01T12:21:36.544Z,2.30
2023-04-01T12:24:33.474Z,2.53
2023-04-01T12:27:24.764Z,2.60
2023-04-01T12:30:32.421Z,2.03
2023-04-01T12:33:20.581Z,2.53
2023-04-01T12:36:03.169Z,2.40
2023-04-01T12:38:46.648Z,2.37
2023-04-01T12:41:29.097Z,2.30
2023-04-01T12:44:25.716Z,2.50
2023-04-01T12:47:25.638Z,2.47
2023-04-01T12:50:28.779Z,2.53
2023-04-01T12:53:13.849Z,2.37
2023-04-01T12:55:43.631Z,2.13
2023-04-01T12:58:53.579Z,2.40
2023-04-01T13:01:32.224Z,2.43
2023-04-01T13:04:40.199Z,1.93
2023-04-01T13:07:38.052Z,2.40
2023-04-01T13:10:22.283Z,2.40
2023-04-01T13:13:12.946Z,2.30
2023-04-01T13:15:48.710Z,2.23
2023-04-01T13:18:28.696Z,2.43
2023-04-01T13:21:08.045Z,2.40
2023-04-01T13:23:51.008Z,2.13
2023-04-01T13:26:28.346Z,1.90
2023-04-01T13:29:05.964Z,2.20
2023-04-01T13:31:49.578Z,1.87
2023-04-01T13:34:32.845Z,2.80
2023-04-01T13:37:20.133Z,2.20
2023-04-01T13:40:13.016Z,2.30
2023-04-01T13:42:48.390Z,2.30
2023-04-01T13:45:21.569Z,2.93
2023-04-01T13:48:29.769Z,3.00
2023-04-01T13:51:20.773Z,2.43
2023-04-01T13:54:30.908Z,2.53
2023-04-01T13:57:16.602Z,2.63
2023-04-01T14:00:06.058Z,2.23
2023-04-01T14:03:06.662Z,2.23
2023-04-01T14:05:53.614Z,2.00
2023-04-01T14:08:45.237Z,2.70
2023-04-01T14:11:24.939Z,2.73
2023-04-01T14:14:06.331Z,2.07
2023-04-01T14:17:03.987Z,2.73
2023-04-01T14:20:01.386Z,2.60
2023-04-01T14:22:41.138Z,2.87
2023-04-01T14:25:47.059Z,2.90
2023-04-01T14:28:28.806Z,2.70
2023-04-01T14:31:32.863Z,2.37
2023-04-01T14:34:14.197Z,2.57
2023-04-01T14:37:05.126Z,2.60
2023-04-01T14:39:51.932Z,2.57
2023-04-01T14:42:54.814Z,2.67
2023-04-01T14:45:45.585Z,2.63
2023-04-01T14:48:25.321Z,2.53
2023-04-01T14:50:57.450Z,2.60
2023-04-01T14:53:31.233Z,2.63
2023-04-01T14:56:01.727Z,3.33
2023-04-01T14:58:44.674Z,3.00
2023-04-01T15:01:35.961Z,2.50
2023-04-01T15:04:26.147Z,2.60
2023-04-01T15:07:11.196Z,2.73
2023-04-01T15:09:46.505Z,2.67
2023-04-01T15:12:24.444Z,2.83
2023-04-01T15:15:11.821Z,2.47
2023-04-01T15:17:59.304Z,2.70
2023-04-01T15:20:52.284Z,2.50
2023-04-01T15:23:33.470Z,3.07
2023-04-01T15:26:22.876Z,2.97
2023-04-01T15:29:05.226Z,3.30
2023-04-01T15:31:42.993Z,2.70
2023-04-01T15:34:26.463Z,3.00
2023-04-01T15:37:02.836Z,3.00
2023-04-01T15:39:46.918Z,2.90
2023-04-01T15:42:29.380Z,2.57
2023-04-01T15:45:14.482Z,2.17
2023-04-01T15:47:47.851Z,2.53
2023-04-01T15:51:08.249Z,2.57
2023-04-01T15:53:58.951Z,2.60
2023-04-01T15:56:47.019Z,2.47
2023-04-01T15:59:29.476Z,2.20
2023-04-01T16:02:04.149Z,2.90
2023-04-01T16:04:56.326Z,2.80
2023-04-01T16:07:43.927Z,3.53
2023-04-01T16:10:37.140Z,3.13
2023-04-01T16:13:22.938Z,3.53
2023-04-01T16:16:00.794Z,3.50
2023-04-01T16:18:50.653Z,2.93
2023-04-01T16:21:39.766Z,3.03
2023-04-01T16:24:19.478Z,2.70
2023-04-01T16:26:56.515Z,3.07
2023-04-01T16:29:34.473Z,3.43
2023-04-01T16:32:33.654Z,2.43
2023-04-01T16:35:27.948Z,2.33
2023-04-01T16:38:03.368Z,2.90
2023-04-01T16:40:44.879Z,2.97
2023-04-01T16:43:21.579Z,4.03
2023-04-01T16:46:07.944Z,2.53
2023-04-01T16:48:54.048Z,3.27
2023-04-01T16:51:24.424Z,2.40
2023-04-01T16:54:04.543Z,2.90
2023-04-01T16:56:42.910Z,2.70
2023-04-01T16:59:22.468Z,3.23
2023-04-01T17:01:55.362Z,2.90
2023-04-01T17:04:34.746Z,2.50
2023-04-01T17:07:15.182Z,3.73
2023-04-01T17:10:02.745Z,2.77
2023-04-01T17:12:40.315Z,2.90
2023-04-01T17:15:23.448Z,2.20
2023-04-01T17:18:01.738Z,2.77
2023-04-01T17:20:45.571Z,2.00
2023-04-01T17:23:26.162Z,1.97
2023-04-01T17:26:05.408Z,1.87
2023-04-01T17:28:46.911Z,1.97
2023-04-01T17:31:28.393Z,2.53
2023-04-01T17:34:15.520Z,2.47
2023-04-01T17:37:01.835Z,1.80
2023-04-01T17:39:57.093Z,2.20
2023-04-01T17:42:39.469Z,2.07
2023-04-01T17:45:20.443Z,2.13
2023-04-01T17:48:00.657Z,1.93
2023-04-01T17:50:45.567Z,1.80
2023-04-01T17:53:30.881Z,2.23
2023-04-01T17:56:13.987Z,1.67
2023-04-01T17:58:48.416Z,1.50
2023-04-01T18:01:32.481Z,1.30
2023-04-01T18:04:20.815Z,1.73
2023-04-01T18:07:17.721Z,2.07
2023-04-01T18:10:01.314Z,2.00
2023-04-01T18:12:40.242Z,2.13
2023-04-01T18:15:29.982Z,1.80
2023-04-01T18:18:13.047Z,1.70
2023-04-01T18:20:52.471Z,1.83
2023-04-01T18:23:37.703Z,2.07
2023-04-01T18:26:17.040Z,1.90
2023-04-01T18:28:57.875Z,2.13
2023-04-01T18:31:42.506Z,1.70
2023-04-01T18:34:23.983Z,2.50
2023-04-01T18:37:03.110Z,9.87
2023-04-01T18:39:41.630Z,2.23
2023-04-01T18:42:24.787Z,1.67
2023-04-01T18:44:58.762Z,3.00
2023-04-01T18:47:44.417Z,1.83
2023-04-01T18:50:27.674Z,1.80
2023-04-01T18:53:12.345Z,2.67
2023-04-01T18:55:48.874Z,2.20
2023-04-01T18:58:28.603Z,13.20
2023-04-01T19:01:13.242Z,3.67
2023-04-01T19:03:59.983Z,2.77
2023-04-01T19:06:50.997Z,2.07
2023-04-01T19:09:26.714Z,2.33
2023-04-01T19:12:29.664Z,2.07
2023-04-01T19:15:24.844Z,1.47
2023-04-01T19:18:12.570Z,1.73
2023-04-01T19:20:52.194Z,1.93
2023-04-01T19:23:47.661Z,1.77
2023-04-01T19:26:24.677Z,1.97
2023-04-01T19:29:05.374Z,2.63
2023-04-01T19:32:06.678Z,2.00
2023-04-01T19:34:54.341Z,3.17
2023-04-01T19:37:34.433Z,1.70
2023-04-01T19:40:32.888Z,1.63
2023-04-01T19:43:14.215Z,1.90
2023-04-01T19:45:48.747Z,1.53
2023-04-01T19:48:46.184Z,2.00
2023-04-01T19:51:24.120Z,1.53
2023-04-01T19:54:03.709Z,1.87
2023-04-01T19:56:43.668Z,2.00
2023-04-01T19:59:25.137Z,1.53
2023-04-01T20:02:03.528Z,1.87
2023-04-01T20:04:44.145Z,1.57
2023-04-01T20:07:19.077Z,1.53
2023-04-01T20:09:57.576Z,1.70
2023-04-01T20:12:42.447Z,1.77
2023-04-01T20:15:33.917Z,1.80
2023-04-01T20:18:11.732Z,1.70
2023-04-01T20:20:44.724Z,1.77
2023-04-01T20:23:40.596Z,1.10
2023-04-01T20:26:17.893Z,2.50
2023-04-01T20:29:06.901Z,1.67
2023-04-01T20:31:46.240Z,1.50
2023-04-01T20:34:32.585Z,1.27
2023-04-01T20:37:23.437Z,1.27
2023-04-01T20:40:20.735Z,1.63
2023-04-01T20:43:21.866Z,1.40
2023-04-01T20:46:08.160Z,2.70
2023-04-01T20:48:57.699Z,1.50
2023-04-01T20:51:34.453Z,1.50
2023-04-01T20:54:27.394Z,1.80
2023-04-01T20:57:07.942Z,1.40
2023-04-01T21:00:17.948Z,2.33
2023-04-01T21:03:23.878Z,1.90
2023-04-01T21:06:32.215Z,2.20
2023-04-01T21:09:22.438Z,1.53
2023-04-01T21:12:08.157Z,1.50
2023-04-01T21:15:27.761Z,1.10
2023-04-01T21:18:37.503Z,1.70
2023-04-01T21:21:32.067Z,1.97
2023-04-01T21:24:38.130Z,1.97
2023-04-01T21:27:22.213Z,1.60
2023-04-01T21:30:11.276Z,1.37
2023-04-01T21:33:13.318Z,0.97
2023-04-01T21:36:03.775Z,1.00
2023-04-01T21:39:06.801Z,1.10
2023-04-01T21:41:49.174Z,1.20
2023-04-01T21:44:42.579Z,1.27
2023-04-01T21:47:49.104Z,1.27
2023-04-01T21:50:46.074Z,1.47
2023-04-01T21:53:54.485Z,1.20
2023-04-01T21:56:51.474Z,1.50
2023-04-01T22:00:06.908Z,1.63
2023-04-01T22:03:06.071Z,0.67
2023-04-01T22:05:45.924Z,1.27
2023-04-01T22:08:41.852Z,1.27
2023-04-01T22:11:22.662Z,1.03
2023-04-01T22:13:58.630Z,1.30
2023-04-01T22:16:35.200Z,1.40
2023-04-01T22:19:14.903Z,1.10
2023-04-01T22:21:53.915Z,1.37
2023-04-01T22:24:33.490Z,1.07
2023-04-01T22:27:09.102Z,1.10
2023-04-01T22:29:45.113Z,0.87
2023-04-01T22:32:20.588Z,0.70
2023-04-01T22:34:58.495Z,0.77
2023-04-01T22:37:36.728Z,1.10
2023-04-01T22:40:22.889Z,1.03
2023-04-01T22:43:00.155Z,1.20
2023-04-01T22:45:45.783Z,0.80
2023-04-01T22:48:22.176Z,1.27
2023-04-01T22:50:59.778Z,1.00
2023-04-01T22:53:43.400Z,1.20
2023-04-01T22:56:17.566Z,1.13
2023-04-01T22:58:54.092Z,0.90
2023-04-01T23:01:27.779Z,1.03
2023-04-01T23:04:00.112Z,0.97
2023-04-01T23:06:34.251Z,1.07
2023-04-01T23:09:10.879Z,0.87
2023-04-01T23:11:46.987Z,0.93
2023-04-01T23:14:47.239Z,0.93
2023-04-01T23:17:47.443Z,1.20
2023-04-01T23:20:29.578Z,1.00
2023-04-01T23:23:22.479Z,0.70
2023-04-01T23:26:02.144Z,0.90
2023-04-01T23:28:47.607Z,1.33
2023-04-01T23:31:30.407Z,0.63
2023-04-01T23:34:02.705Z,1.03
2023-04-01T23:36:38.253Z,0.73
2023-04-01T23:39:20.292Z,0.97
2023-04-01T23:41:49.911Z,0.90
2023-04-01T23:44:19.343Z,0.50
2023-04-01T23:46:50.638Z,1.20
2023-04-01T23:49:26.025Z,1.10
2023-04-01T23:52:00.827Z,0.53
2023-04-01T23:54:35.421Z,1.00
2023-04-01T23:57:13.793Z,0.73
2023-04-01T23:59:43.386Z,0.70
